Time;durP1;ratioP1;P1;durP2;ratioP2;P2;SDS_P1;SDS_P2;PMS_P1;PMS_P2;Temp;Humidity;BMP_temperature;BMP_pressure;BME280_temperature;BME280_humidity;BME280_pressure;Samples;Min_cycle;Max_cycle;Signal;HPM_P1;HPM_P2
2022/11/18 00:01:23;;;;;;;;;1.50;1.00;;;;;;;;5070480;28;9990;-81
2022/11/18 00:03:51;;;;;;;;;1.00;1.00;;;;;;;;5092714;28;9947;-82
2022/11/18 00:06:20;;;;;;;;;1.00;1.00;;;;;;;;5071735;28;10020;-81
2022/11/18 00:08:48;;;;;;;;;0.75;0.75;;;;;;;;5089393;28;10080;-82
2022/11/18 00:14:19;;;;;;;;;1.00;1.00;;;;;;;;5089597;28;10005;-81
2022/11/18 00:16:51;;;;;;;;;0.50;0.50;;;;;;;;5092911;28;10894;-82
2022/11/18 00:19:19;;;;;;;;;0.50;0.50;;;;;;;;5091812;28;9886;-82
2022/11/18 00:21:49;;;;;;;;;4.75;1.00;;;;;;;;5092329;28;10051;-81
2022/11/18 00:24:17;;;;;;;;;0.25;0.25;;;;;;;;5085649;28;10028;-82
2022/11/18 00:26:46;;;;;;;;;2.00;0.50;;;;;;;;5091577;28;9913;-82
2022/11/18 00:29:14;;;;;;;;;0.00;0.00;;;;;;;;5087315;28;10733;-82
2022/11/18 00:31:42;;;;;;;;;1.75;1.00;;;;;;;;5090339;28;10068;-83
2022/11/18 00:34:13;;;;;;;;;1.50;1.00;;;;;;;;5088289;28;9874;-82
2022/11/18 00:36:40;;;;;;;;;1.00;1.00;;;;;;;;5071204;28;9790;-82
2022/11/18 00:39:08;;;;;;;;;0.00;0.00;;;;;;;;5090368;28;9842;-83
2022/11/18 00:44:18;;;;;;;;;1.00;1.00;;;;;;;;5048256;28;9980;-82
2022/11/18 00:46:46;;;;;;;;;0.50;0.50;;;;;;;;5073336;28;9888;-83
2022/11/18 00:49:13;;;;;;;;;1.00;1.00;;;;;;;;5072481;28;9855;-82
2022/11/18 00:51:41;;;;;;;;;0.00;0.00;;;;;;;;5085703;28;10003;-82
2022/11/18 00:54:08;;;;;;;;;2.00;0.00;;;;;;;;5074384;28;9916;-82
2022/11/18 00:56:36;;;;;;;;;0.25;0.25;;;;;;;;5090865;28;9885;-83
2022/11/18 00:59:03;;;;;;;;;1.00;1.00;;;;;;;;5090042;28;9833;-83
2022/11/18 01:01:33;;;;;;;;;0.00;0.00;;;;;;;;5090538;28;10202;-82
2022/11/18 01:04:01;;;;;;;;;1.00;1.00;;;;;;;;5075265;28;9877;-82
2022/11/18 01:06:29;;;;;;;;;1.00;1.00;;;;;;;;5090102;28;9817;-82
2022/11/18 01:08:56;;;;;;;;;1.00;1.00;;;;;;;;5087963;28;10045;-83
2022/11/18 01:14:09;;;;;;;;;1.00;1.00;;;;;;;;5069562;28;9872;-83
2022/11/18 01:16:38;;;;;;;;;0.50;0.50;;;;;;;;5091920;28;9768;-82
2022/11/18 01:19:05;;;;;;;;;1.25;1.25;;;;;;;;5074738;28;9899;-82
2022/11/18 01:21:33;;;;;;;;;0.75;0.75;;;;;;;;5072839;28;9912;-82
2022/11/18 01:24:01;;;;;;;;;0.00;0.00;;;;;;;;5070057;28;9953;-82
2022/11/18 01:26:28;;;;;;;;;4.00;1.00;;;;;;;;5072562;28;9887;-81
2022/11/18 01:28:57;;;;;;;;;0.25;0.25;;;;;;;;5086012;28;10145;-82
2022/11/18 01:31:25;;;;;;;;;0.00;0.00;;;;;;;;5053952;28;9871;-82
2022/11/18 01:33:54;;;;;;;;;4.00;1.00;;;;;;;;5070623;28;9927;-81
2022/11/18 01:36:23;;;;;;;;;1.00;1.00;;;;;;;;5069393;28;9995;-82
2022/11/18 01:38:52;;;;;;;;;0.00;0.00;;;;;;;;5094130;28;9912;-82
2022/11/18 01:41:22;;;;;;;;;1.00;1.00;;;;;;;;5090988;28;9917;-82
2022/11/18 01:43:52;;;;;;;;;0.00;0.00;;;;;;;;5092797;28;9883;-82
2022/11/18 01:46:21;;;;;;;;;1.00;0.00;;;;;;;;5072914;28;9988;-81
2022/11/18 01:48:51;;;;;;;;;0.00;0.00;;;;;;;;5090692;28;10027;-81
2022/11/18 01:51:25;;;;;;;;;0.50;0.50;;;;;;;;5077203;28;9995;-82
2022/11/18 01:53:59;;;;;;;;;0.00;0.00;;;;;;;;5090238;28;9998;-81
2022/11/18 01:56:31;;;;;;;;;0.00;0.00;;;;;;;;5072187;28;10083;-81
2022/11/18 01:59:02;;;;;;;;;0.00;0.00;;;;;;;;5074164;28;10057;-81
2022/11/18 02:01:32;;;;;;;;;1.00;0.00;;;;;;;;5092145;28;10032;-82
2022/11/18 02:04:00;;;;;;;;;1.25;1.25;;;;;;;;5090527;28;10081;-82
2022/11/18 02:06:29;;;;;;;;;1.50;0.25;;;;;;;;5073888;28;10011;-83
2022/11/18 02:08:58;;;;;;;;;0.00;0.00;;;;;;;;5093087;28;10156;-83
2022/11/18 02:14:28;;;;;;;;;0.50;0.50;;;;;;;;5014563;28;10185;-81
2022/11/18 02:17:05;;;;;;;;;0.00;0.00;;;;;;;;5028692;28;10107;-81
2022/11/18 02:20:00;;;;;;;;;0.00;0.00;;;;;;;;5026080;28;10008;-82
2022/11/18 02:22:45;;;;;;;;;2.00;0.25;;;;;;;;5081821;28;10199;-82
2022/11/18 02:25:21;;;;;;;;;1.00;1.00;;;;;;;;5074981;28;10148;-82
2022/11/18 02:27:59;;;;;;;;;0.25;0.00;;;;;;;;5074944;28;10156;-82
2022/11/18 02:30:32;;;;;;;;;0.00;0.00;;;;;;;;5095054;28;10199;-82
2022/11/18 02:33:07;;;;;;;;;0.00;0.00;;;;;;;;5093005;28;10138;-81
2022/11/18 02:35:41;;;;;;;;;2.00;0.75;;;;;;;;5089328;28;10237;-81
2022/11/18 02:38:12;;;;;;;;;0.00;0.00;;;;;;;;5071422;28;10156;-81
2022/11/18 02:40:42;;;;;;;;;0.25;0.25;;;;;;;;5067216;28;10121;-82
2022/11/18 02:43:14;;;;;;;;;0.00;0.00;;;;;;;;5065222;28;10259;-81
2022/11/18 02:45:46;;;;;;;;;1.00;1.00;;;;;;;;5063378;28;10210;-81
2022/11/18 02:48:15;;;;;;;;;0.00;0.00;;;;;;;;5068182;28;10352;-82
2022/11/18 02:50:44;;;;;;;;;0.25;0.25;;;;;;;;5070120;28;10344;-82
2022/11/18 02:53:14;;;;;;;;;0.50;0.50;;;;;;;;5068343;28;11004;-81
2022/11/18 02:55:44;;;;;;;;;0.00;0.00;;;;;;;;5067173;28;10289;-81
2022/11/18 02:58:12;;;;;;;;;0.00;0.00;;;;;;;;5067112;28;11001;-81
2022/11/18 03:00:40;;;;;;;;;0.00;0.00;;;;;;;;5073027;28;10247;-80
2022/11/18 03:03:26;;;;;;;;;0.50;0.00;;;;;;;;5066184;28;10932;-82
2022/11/18 03:06:05;;;;;;;;;0.00;0.00;;;;;;;;5066098;28;10229;-82
2022/11/18 03:08:37;;;;;;;;;0.00;0.00;;;;;;;;5070200;28;10210;-81
2022/11/18 03:11:15;;;;;;;;;0.00;0.00;;;;;;;;5065387;28;10239;-83
2022/11/18 03:13:52;;;;;;;;;2.00;0.00;;;;;;;;5066760;28;10262;-82
2022/11/18 03:16:25;;;;;;;;;0.00;0.00;;;;;;;;5069122;28;11100;-82
2022/11/18 03:18:57;;;;;;;;;0.00;0.00;;;;;;;;5068242;28;10152;-81
2022/11/18 03:21:32;;;;;;;;;0.00;0.00;;;;;;;;5071082;28;10296;-83
2022/11/18 03:24:06;;;;;;;;;0.00;0.00;;;;;;;;5068346;28;10364;-82
2022/11/18 03:26:39;;;;;;;;;0.00;0.00;;;;;;;;5071809;28;10209;-82
2022/11/18 03:29:10;;;;;;;;;2.00;0.25;;;;;;;;5069525;28;10824;-82
2022/11/18 03:31:42;;;;;;;;;0.25;0.25;;;;;;;;5071372;28;10446;-81
2022/11/18 03:34:15;;;;;;;;;0.00;0.00;;;;;;;;5066179;28;10229;-81
2022/11/18 03:36:47;;;;;;;;;0.00;0.00;;;;;;;;5069465;28;10270;-80
2022/11/18 03:39:17;;;;;;;;;0.00;0.00;;;;;;;;5072373;28;10284;-82
2022/11/18 03:41:49;;;;;;;;;0.00;0.00;;;;;;;;5066822;28;10358;-82
2022/11/18 03:44:20;;;;;;;;;0.00;0.00;;;;;;;;5067364;28;10494;-82
2022/11/18 03:46:52;;;;;;;;;0.00;0.00;;;;;;;;5068161;28;10351;-83
2022/11/18 03:49:26;;;;;;;;;0.00;0.00;;;;;;;;5070224;28;10586;-83
2022/11/18 03:52:01;;;;;;;;;0.00;0.00;;;;;;;;5068251;28;10291;-83
2022/11/18 03:54:31;;;;;;;;;0.00;0.00;;;;;;;;5066347;28;10516;-84
2022/11/18 03:57:00;;;;;;;;;0.50;0.00;;;;;;;;5068064;28;10328;-82
2022/11/18 03:59:33;;;;;;;;;0.00;0.00;;;;;;;;5067694;28;10209;-82
2022/11/18 04:02:05;;;;;;;;;2.00;0.75;;;;;;;;5069411;28;10279;-83
2022/11/18 04:04:36;;;;;;;;;0.00;0.00;;;;;;;;5074000;28;10281;-83
2022/11/18 04:07:06;;;;;;;;;0.00;0.00;;;;;;;;5066989;28;10278;-81
2022/11/18 04:09:38;;;;;;;;;0.00;0.00;;;;;;;;5067682;28;11094;-82
2022/11/18 04:12:09;;;;;;;;;2.00;0.00;;;;;;;;5068599;28;10129;-81
2022/11/18 04:14:38;;;;;;;;;1.00;0.00;;;;;;;;5065513;28;10355;-82
2022/11/18 04:17:09;;;;;;;;;0.00;0.00;;;;;;;;5070447;28;10270;-81
2022/11/18 04:19:39;;;;;;;;;0.00;0.00;;;;;;;;5067659;28;10439;-82
2022/11/18 04:22:07;;;;;;;;;0.00;0.00;;;;;;;;5067177;28;10469;-82
2022/11/18 04:24:34;;;;;;;;;0.00;0.00;;;;;;;;5070080;28;10270;-82
2022/11/18 04:27:02;;;;;;;;;1.50;0.00;;;;;;;;5067620;28;10292;-81
2022/11/18 04:29:30;;;;;;;;;0.00;0.00;;;;;;;;5075115;28;10282;-81
2022/11/18 04:31:58;;;;;;;;;0.00;0.00;;;;;;;;5070133;28;10303;-81
2022/11/18 04:34:25;;;;;;;;;0.00;0.00;;;;;;;;5068046;28;10210;-80
2022/11/18 04:36:54;;;;;;;;;0.00;0.00;;;;;;;;5069128;28;10255;-81
2022/11/18 04:39:22;;;;;;;;;0.00;0.00;;;;;;;;5092161;28;10138;-82
2022/11/18 04:41:55;;;;;;;;;0.00;0.00;;;;;;;;5086653;28;10189;-81
2022/11/18 04:44:24;;;;;;;;;0.00;0.00;;;;;;;;5071425;28;10281;-82
2022/11/18 04:46:51;;;;;;;;;0.50;0.00;;;;;;;;5091304;28;10217;-82
2022/11/18 04:49:19;;;;;;;;;0.50;0.00;;;;;;;;5085638;28;10236;-81
2022/11/18 04:51:47;;;;;;;;;0.00;0.00;;;;;;;;5085113;28;10217;-81
2022/11/18 04:54:17;;;;;;;;;0.00;0.00;;;;;;;;5084123;28;10251;-81
2022/11/18 04:56:45;;;;;;;;;0.00;0.00;;;;;;;;5085462;28;10155;-82
2022/11/18 04:59:14;;;;;;;;;0.25;0.25;;;;;;;;5078091;28;10142;-82
2022/11/18 05:01:41;;;;;;;;;0.00;0.00;;;;;;;;5089204;28;10162;-81
2022/11/18 05:04:13;;;;;;;;;0.00;0.00;;;;;;;;5092487;28;10124;-81
2022/11/18 05:06:40;;;;;;;;;0.00;0.00;;;;;;;;5086490;28;10160;-81
2022/11/18 05:09:08;;;;;;;;;0.00;0.00;;;;;;;;5072409;28;10345;-82
2022/11/18 05:14:25;;;;;;;;;0.00;0.00;;;;;;;;5097146;28;10192;-81
2022/11/18 05:16:52;;;;;;;;;0.00;0.00;;;;;;;;5096228;28;10201;-82
2022/11/18 05:19:20;;;;;;;;;0.00;0.00;;;;;;;;5097253;28;10447;-81
2022/11/18 05:21:48;;;;;;;;;0.00;0.00;;;;;;;;5092439;28;10150;-82
2022/11/18 05:24:15;;;;;;;;;3.00;0.00;;;;;;;;5061014;28;10161;-81
2022/11/18 05:26:45;;;;;;;;;1.00;0.00;;;;;;;;5073199;28;10595;-82
2022/11/18 05:29:13;;;;;;;;;0.00;0.00;;;;;;;;5092263;28;10253;-82
2022/11/18 05:31:40;;;;;;;;;0.50;0.00;;;;;;;;5076847;28;10215;-83
2022/11/18 05:34:08;;;;;;;;;0.00;0.00;;;;;;;;5081561;28;10147;-79
2022/11/18 05:36:36;;;;;;;;;0.00;0.00;;;;;;;;5078422;28;11073;-80
2022/11/18 05:39:06;;;;;;;;;0.00;0.00;;;;;;;;5073199;28;10126;-81
2022/11/18 05:44:20;;;;;;;;;1.50;0.00;;;;;;;;5070370;28;10116;-80
2022/11/18 05:46:47;;;;;;;;;0.00;0.00;;;;;;;;5076885;28;10924;-82
2022/11/18 05:49:15;;;;;;;;;0.00;0.00;;;;;;;;5098015;28;10143;-83
2022/11/18 05:51:43;;;;;;;;;1.00;0.00;;;;;;;;5075433;28;10168;-84
2022/11/18 05:54:11;;;;;;;;;0.00;0.00;;;;;;;;5096682;28;10143;-84
2022/11/18 05:56:40;;;;;;;;;0.75;0.00;;;;;;;;5092362;28;10236;-84
2022/11/18 05:59:08;;;;;;;;;1.00;0.00;;;;;;;;5092782;28;10243;-82
2022/11/18 06:01:40;;;;;;;;;0.25;0.00;;;;;;;;5091701;28;10067;-81
2022/11/18 06:04:11;;;;;;;;;0.50;0.50;;;;;;;;5097586;28;10123;-82
2022/11/18 06:06:42;;;;;;;;;1.50;1.00;;;;;;;;5092480;28;10126;-82
2022/11/18 06:09:13;;;;;;;;;0.00;0.00;;;;;;;;5098491;28;10087;-82
2022/11/18 06:11:43;;;;;;;;;0.00;0.00;;;;;;;;5057774;28;10199;-83
2022/11/18 06:14:17;;;;;;;;;1.75;0.75;;;;;;;;5077334;28;10205;-83
2022/11/18 06:16:59;;;;;;;;;0.00;0.00;;;;;;;;5074870;28;10263;-83
2022/11/18 06:19:27;;;;;;;;;0.00;0.00;;;;;;;;5093036;28;10011;-82
2022/11/18 06:21:55;;;;;;;;;1.25;1.25;;;;;;;;5094373;28;10090;-83
2022/11/18 06:24:23;;;;;;;;;0.00;0.00;;;;;;;;5096791;28;10344;-82
2022/11/18 06:26:50;;;;;;;;;0.50;0.50;;;;;;;;5092597;28;10127;-82
2022/11/18 06:29:19;;;;;;;;;0.00;0.00;;;;;;;;5094909;28;10129;-82
2022/11/18 06:31:51;;;;;;;;;0.00;0.00;;;;;;;;5074297;28;10006;-83
2022/11/18 06:34:18;;;;;;;;;1.00;1.00;;;;;;;;5091624;28;10944;-83
2022/11/18 06:36:46;;;;;;;;;0.00;0.00;;;;;;;;5093950;28;10042;-82
2022/11/18 06:39:13;;;;;;;;;0.00;0.00;;;;;;;;5057065;28;10203;-83
2022/11/18 06:41:40;;;;;;;;;0.00;0.00;;;;;;;;5055095;28;10263;-82
2022/11/18 06:44:07;;;;;;;;;0.50;0.50;;;;;;;;5053348;28;10087;-82
2022/11/18 06:49:21;;;;;;;;;0.00;0.00;;;;;;;;5057190;28;10034;-83
2022/11/18 06:51:49;;;;;;;;;0.75;0.75;;;;;;;;5054185;28;10315;-82
2022/11/18 06:54:16;;;;;;;;;0.00;0.00;;;;;;;;5052366;28;10841;-82
2022/11/18 06:56:44;;;;;;;;;0.50;0.50;;;;;;;;5053360;28;10110;-82
2022/11/18 06:59:11;;;;;;;;;1.00;1.00;;;;;;;;5054780;28;10116;-82
2022/11/18 07:01:41;;;;;;;;;0.25;0.25;;;;;;;;5051067;28;10169;-82
2022/11/18 07:04:08;;;;;;;;;0.25;0.25;;;;;;;;5057019;28;10093;-81
2022/11/18 07:06:38;;;;;;;;;0.00;0.00;;;;;;;;5060370;28;10311;-81
2022/11/18 07:09:07;;;;;;;;;0.00;0.00;;;;;;;;5055219;28;10127;-81
2022/11/18 07:11:37;;;;;;;;;0.00;0.00;;;;;;;;5056875;28;10051;-81
2022/11/18 07:14:04;;;;;;;;;1.00;0.50;;;;;;;;5049716;28;10120;-81
2022/11/18 07:16:33;;;;;;;;;0.00;0.00;;;;;;;;5050312;28;10224;-79
2022/11/18 07:19:01;;;;;;;;;3.00;0.00;;;;;;;;5060096;28;11015;-81
2022/11/18 07:21:29;;;;;;;;;1.75;0.00;;;;;;;;5060181;28;10256;-80
2022/11/18 07:23:58;;;;;;;;;1.00;1.00;;;;;;;;5056512;28;10396;-80
2022/11/18 07:26:26;;;;;;;;;1.25;1.25;;;;;;;;5055683;28;10199;-82
2022/11/18 07:28:54;;;;;;;;;1.00;1.00;;;;;;;;5053214;28;10469;-82
2022/11/18 07:31:22;;;;;;;;;2.00;0.00;;;;;;;;5054568;28;10286;-82
2022/11/18 07:33:52;;;;;;;;;3.00;1.00;;;;;;;;5051324;28;10390;-81
2022/11/18 07:36:22;;;;;;;;;0.50;0.25;;;;;;;;5050202;28;10382;-81
2022/11/18 07:38:50;;;;;;;;;1.75;1.00;;;;;;;;5085002;28;10435;-81
2022/11/18 07:41:20;;;;;;;;;2.00;0.50;;;;;;;;5090926;28;10459;-78
2022/11/18 07:43:49;;;;;;;;;1.00;1.00;;;;;;;;5081033;28;10355;-75
2022/11/18 07:46:18;;;;;;;;;2.50;1.00;;;;;;;;5096077;28;10547;-78
2022/11/18 07:48:48;;;;;;;;;0.50;0.25;;;;;;;;5079427;28;10372;-78
2022/11/18 07:51:17;;;;;;;;;1.50;1.00;;;;;;;;5085424;28;10334;-78
2022/11/18 07:53:52;;;;;;;;;1.00;0.75;;;;;;;;5089341;28;10345;-79
2022/11/18 07:56:21;;;;;;;;;2.50;1.75;;;;;;;;5085737;28;10358;-79
2022/11/18 07:58:53;;;;;;;;;0.00;0.00;;;;;;;;5086892;28;10549;-77
2022/11/18 08:01:23;;;;;;;;;1.00;1.00;;;;;;;;5081091;28;10222;-78
2022/11/18 08:03:51;;;;;;;;;2.00;2.00;;;;;;;;5085480;28;11084;-78
2022/11/18 08:06:19;;;;;;;;;0.25;0.25;;;;;;;;5085527;28;10431;-78
2022/11/18 08:08:47;;;;;;;;;2.00;0.00;;;;;;;;5086303;28;10392;-77
2022/11/18 08:11:16;;;;;;;;;3.00;2.00;;;;;;;;5087128;28;10309;-79
2022/11/18 08:13:45;;;;;;;;;2.00;0.50;;;;;;;;5087433;28;10963;-78
2022/11/18 08:16:15;;;;;;;;;1.00;1.00;;;;;;;;5086426;28;10991;-77
2022/11/18 08:18:42;;;;;;;;;1.00;1.00;;;;;;;;5065387;28;10226;-76
2022/11/18 08:21:11;;;;;;;;;1.25;1.25;;;;;;;;5087845;28;10340;-75
2022/11/18 08:23:38;;;;;;;;;0.00;0.00;;;;;;;;5070711;28;10313;-80
2022/11/18 08:26:09;;;;;;;;;0.50;0.50;;;;;;;;5074113;28;10123;-81
2022/11/18 08:28:37;;;;;;;;;4.00;1.00;;;;;;;;5083254;28;9970;-79
2022/11/18 08:31:11;;;;;;;;;1.00;1.00;;;;;;;;5071630;28;10155;-76
2022/11/18 08:33:39;;;;;;;;;5.00;1.75;;;;;;;;5085356;28;10112;-79
2022/11/18 08:36:09;;;;;;;;;1.00;1.00;;;;;;;;5070724;28;10150;-76
2022/11/18 08:38:37;;;;;;;;;0.00;0.00;;;;;;;;5082368;28;10152;-77
2022/11/18 08:41:06;;;;;;;;;3.00;3.00;;;;;;;;5066192;28;10172;-75
2022/11/18 08:43:33;;;;;;;;;4.50;1.00;;;;;;;;5085428;28;10318;-76
2022/11/18 08:46:01;;;;;;;;;1.50;1.50;;;;;;;;5084708;28;10193;-76
2022/11/18 08:48:30;;;;;;;;;1.00;0.00;;;;;;;;5086952;28;10060;-76
2022/11/18 08:50:58;;;;;;;;;1.00;1.00;;;;;;;;5091448;28;10140;-77
2022/11/18 08:53:26;;;;;;;;;2.00;2.00;;;;;;;;5089329;28;10203;-79
2022/11/18 08:55:57;;;;;;;;;1.00;1.00;;;;;;;;5081266;28;10082;-78
2022/11/18 08:58:24;;;;;;;;;0.75;0.75;;;;;;;;5087920;28;10816;-77
2022/11/18 09:00:52;;;;;;;;;2.00;2.00;;;;;;;;5085681;28;10119;-77
2022/11/18 09:03:20;;;;;;;;;1.00;1.00;;;;;;;;5090408;28;9933;-78
2022/11/18 09:05:49;;;;;;;;;1.00;1.00;;;;;;;;5089307;28;10096;-77
2022/11/18 09:08:16;;;;;;;;;0.75;0.00;;;;;;;;5087625;28;10010;-77
2022/11/18 09:10:44;;;;;;;;;2.25;1.00;;;;;;;;5085354;28;10659;-77
2022/11/18 09:13:12;;;;;;;;;1.00;1.00;;;;;;;;5091985;28;10518;-79
2022/11/18 09:15:40;;;;;;;;;1.00;1.00;;;;;;;;5087967;28;10850;-80
2022/11/18 09:18:09;;;;;;;;;2.00;2.00;;;;;;;;5086690;28;9958;-78
2022/11/18 09:20:37;;;;;;;;;2.50;1.00;;;;;;;;5066662;28;9873;-76
2022/11/18 09:23:06;;;;;;;;;1.00;1.00;;;;;;;;5066329;28;10283;-76
2022/11/18 09:25:34;;;;;;;;;3.00;2.00;;;;;;;;5067801;28;9902;-78
2022/11/18 09:28:02;;;;;;;;;1.00;1.00;;;;;;;;5089921;28;9854;-83
2022/11/18 09:30:29;;;;;;;;;1.00;1.00;;;;;;;;5093600;28;9936;-83
2022/11/18 09:32:57;;;;;;;;;0.00;0.00;;;;;;;;5086605;28;9940;-82
2022/11/18 09:35:25;;;;;;;;;1.75;1.75;;;;;;;;5087674;28;9766;-81
2022/11/18 09:37:52;;;;;;;;;2.00;2.00;;;;;;;;5088007;28;9760;-79
2022/11/18 09:40:21;;;;;;;;;3.75;1.00;;;;;;;;5076524;28;9818;-80
2022/11/18 09:42:57;;;;;;;;;2.00;1.00;;;;;;;;5088993;28;9851;-82
2022/11/18 09:45:28;;;;;;;;;1.00;1.00;;;;;;;;5091130;28;9695;-81
2022/11/18 09:47:58;;;;;;;;;1.75;1.75;;;;;;;;5095474;28;9691;-83
2022/11/18 09:50:27;;;;;;;;;0.75;0.75;;;;;;;;5078024;28;9667;-82
2022/11/18 09:53:05;;;;;;;;;3.00;2.00;;;;;;;;5092973;28;10369;-80
2022/11/18 09:55:37;;;;;;;;;1.00;1.00;;;;;;;;5066040;28;9526;-81
2022/11/18 09:58:05;;;;;;;;;1.00;1.00;;;;;;;;5073763;28;9552;-78
2022/11/18 10:00:33;;;;;;;;;2.00;2.00;;;;;;;;5088840;28;9529;-82
2022/11/18 10:03:05;;;;;;;;;1.00;1.00;;;;;;;;5092676;28;9475;-79
2022/11/18 10:05:35;;;;;;;;;1.00;1.00;;;;;;;;5089044;28;9310;-78
2022/11/18 10:08:16;;;;;;;;;1.00;1.00;;;;;;;;5086789;28;10462;-78
2022/11/18 10:10:54;;;;;;;;;1.00;1.00;;;;;;;;5088374;28;9459;-86
2022/11/18 10:13:32;;;;;;;;;2.00;1.00;;;;;;;;5070211;28;9513;-86
2022/11/18 10:16:08;;;;;;;;;2.00;2.00;;;;;;;;5088291;28;9286;-87
2022/11/18 10:18:39;;;;;;;;;1.00;1.00;;;;;;;;5085087;28;9578;-86
2022/11/18 10:21:16;;;;;;;;;0.67;0.67;;;;;;;;5086380;28;9391;-85
2022/11/18 10:23:52;;;;;;;;;1.00;1.00;;;;;;;;5069571;28;9265;-84
2022/11/18 10:26:34;;;;;;;;;3.67;2.00;;;;;;;;5089764;28;9437;-77
2022/11/18 10:29:02;;;;;;;;;3.33;1.00;;;;;;;;5070989;28;9310;-78
2022/11/18 10:31:30;;;;;;;;;3.00;2.00;;;;;;;;5066644;28;9226;-79
2022/11/18 10:34:01;;;;;;;;;1.00;1.00;;;;;;;;5054733;28;9286;-80
2022/11/18 10:36:31;;;;;;;;;3.00;1.67;;;;;;;;5095812;28;9055;-79
2022/11/18 10:39:14;;;;;;;;;1.00;1.00;;;;;;;;5100170;28;9088;-81
2022/11/18 10:41:52;;;;;;;;;2.00;2.00;;;;;;;;5074637;28;9176;-81
2022/11/18 10:44:37;;;;;;;;;1.00;1.00;;;;;;;;5087009;28;9149;-81
2022/11/18 10:47:26;;;;;;;;;0.33;0.00;;;;;;;;5083447;28;9060;-81
2022/11/18 10:49:58;;;;;;;;;3.00;1.00;;;;;;;;5090478;28;8893;-80
2022/11/18 10:52:26;;;;;;;;;1.33;1.33;;;;;;;;5086723;28;9224;-81
2022/11/18 10:55:23;;;;;;;;;1.00;1.00;;;;;;;;5091217;28;9001;-81
2022/11/18 10:57:58;;;;;;;;;1.00;1.00;;;;;;;;5067561;28;8862;-80
2022/11/18 11:00:35;;;;;;;;;0.00;0.00;;;;;;;;5089752;28;8960;-81
2022/11/18 11:03:28;;;;;;;;;1.00;1.00;;;;;;;;5089409;28;8861;-79
2022/11/18 11:06:29;;;;;;;;;1.00;1.00;;;;;;;;5084523;28;8976;-81
2022/11/18 11:08:59;;;;;;;;;0.00;0.00;;;;;;;;5086153;28;9035;-77
2022/11/18 11:11:29;;;;;;;;;1.00;1.00;;;;;;;;5071687;28;9029;-79
2022/11/18 11:14:17;;;;;;;;;2.00;2.00;;;;;;;;5087062;28;9021;-78
2022/11/18 11:16:59;;;;;;;;;0.33;0.33;;;;;;;;5087232;28;9114;-82
2022/11/18 11:19:32;;;;;;;;;1.00;1.00;;;;;;;;5086345;28;8963;-85
2022/11/18 11:21:59;;;;;;;;;0.75;0.75;;;;;;;;5088441;28;8848;-81
2022/11/18 11:24:28;;;;;;;;;4.00;0.00;;;;;;;;5086308;28;8866;-79
2022/11/18 11:27:21;;;;;;;;;0.00;0.00;;;;;;;;5074623;28;8856;-78
2022/11/18 11:30:18;;;;;;;;;1.00;1.00;;;;;;;;5087697;28;8884;-77
2022/11/18 11:33:25;;;;;;;;;1.75;1.00;;;;;;;;5086305;28;8915;-77
2022/11/18 11:36:09;;;;;;;;;0.25;0.25;;;;;;;;5070233;28;8864;-77
2022/11/18 11:38:46;;;;;;;;;0.00;0.00;;;;;;;;5066020;28;8839;-77
2022/11/18 11:41:22;;;;;;;;;0.00;0.00;;;;;;;;5050205;28;8877;-77
2022/11/18 11:44:13;;;;;;;;;2.00;0.00;;;;;;;;5067585;28;8977;-76
2022/11/18 11:47:45;;;;;;;;;0.75;0.75;;;;;;;;5066692;28;9621;-77
2022/11/18 11:49:52;;;;;;;;;0.75;0.00;;;;;;;;5065184;28;8993;-77
2022/11/18 11:52:29;;;;;;;;;0.00;0.00;;;;;;;;5069480;28;8963;-77
2022/11/18 11:55:01;;;;;;;;;0.00;0.00;;;;;;;;5061321;28;8843;-76
2022/11/18 11:57:38;;;;;;;;;1.25;0.00;;;;;;;;5067355;28;8871;-77
2022/11/18 12:00:08;;;;;;;;;0.00;0.00;;;;;;;;5069752;28;8828;-77
2022/11/18 12:03:01;;;;;;;;;2.00;0.50;;;;;;;;5067157;28;8832;-77
2022/11/18 12:05:34;;;;;;;;;1.75;0.00;;;;;;;;5063523;28;8863;-77
2022/11/18 12:08:04;;;;;;;;;0.00;0.00;;;;;;;;5066304;28;9616;-77
2022/11/18 12:10:39;;;;;;;;;0.75;0.00;;;;;;;;5072440;28;8848;-76
2022/11/18 12:13:22;;;;;;;;;0.00;0.00;;;;;;;;5069181;28;8835;-77
2022/11/18 12:16:02;;;;;;;;;0.25;0.00;;;;;;;;5066063;28;8839;-77
2022/11/18 12:18:37;;;;;;;;;0.00;0.00;;;;;;;;5064989;28;8850;-78
2022/11/18 12:21:04;;;;;;;;;2.00;0.00;;;;;;;;5068977;28;8973;-77
2022/11/18 12:23:33;;;;;;;;;0.00;0.00;;;;;;;;5066229;28;8877;-77
2022/11/18 12:26:06;;;;;;;;;1.50;0.00;;;;;;;;5066110;28;8872;-76
2022/11/18 12:28:37;;;;;;;;;0.00;0.00;;;;;;;;5069052;28;8859;-77
2022/11/18 12:31:33;;;;;;;;;0.00;0.00;;;;;;;;5067449;28;8828;-77
2022/11/18 12:34:17;;;;;;;;;0.00;0.00;;;;;;;;5068418;28;8889;-77
2022/11/18 12:36:45;;;;;;;;;0.00;0.00;;;;;;;;5065790;28;8946;-77
2022/11/18 12:39:47;;;;;;;;;1.50;0.50;;;;;;;;5093064;28;8824;-77
2022/11/18 12:45:57;;;;;;;;;0.25;0.25;;;;;;;;5006752;28;9451;-77
2022/11/18 12:48:32;;;;;;;;;0.00;0.00;;;;;;;;5022716;28;8872;-77
2022/11/18 12:51:01;;;;;;;;;1.25;0.00;;;;;;;;5022896;28;8860;-77
2022/11/18 12:53:36;;;;;;;;;1.00;0.00;;;;;;;;5036135;28;8876;-78
2022/11/18 12:56:12;;;;;;;;;0.00;0.00;;;;;;;;5087823;28;8907;-77
2022/11/18 12:58:45;;;;;;;;;0.00;0.00;;;;;;;;5088547;28;8826;-77
2022/11/18 13:01:14;;;;;;;;;0.00;0.00;;;;;;;;5068501;28;8848;-77
2022/11/18 13:03:42;;;;;;;;;0.00;0.00;;;;;;;;5085163;28;8830;-77
2022/11/18 13:06:25;;;;;;;;;0.00;0.00;;;;;;;;5089476;28;8834;-76
2022/11/18 13:08:57;;;;;;;;;0.00;0.00;;;;;;;;5086893;28;9642;-77
2022/11/18 13:11:44;;;;;;;;;0.00;0.00;;;;;;;;5092692;28;8882;-80
2022/11/18 13:19:56;;;;;;;;;1.00;0.00;;;;;;;;5071033;28;8837;-80
2022/11/18 13:25:25;;;;;;;;;0.00;0.00;;;;;;;;5084605;28;8810;-80
2022/11/18 13:27:58;;;;;;;;;0.00;0.00;;;;;;;;5093258;28;8868;-80
2022/11/18 13:30:26;;;;;;;;;0.00;0.00;;;;;;;;5087020;28;8862;-79
2022/11/18 13:32:55;;;;;;;;;0.00;0.00;;;;;;;;5077637;28;8838;-81
2022/11/18 13:35:28;;;;;;;;;0.00;0.00;;;;;;;;5090797;28;8853;-80
2022/11/18 13:37:58;;;;;;;;;0.00;0.00;;;;;;;;5098927;28;8849;-78
2022/11/18 13:40:27;;;;;;;;;0.00;0.00;;;;;;;;5091025;28;8902;-77
2022/11/18 13:42:57;;;;;;;;;0.00;0.00;;;;;;;;5089456;28;8845;-81
2022/11/18 13:45:27;;;;;;;;;0.00;0.00;;;;;;;;5073491;28;8940;-82
2022/11/18 13:48:00;;;;;;;;;0.00;0.00;;;;;;;;5089297;28;8839;-80
2022/11/18 13:50:33;;;;;;;;;0.00;0.00;;;;;;;;5072302;28;8993;-81
2022/11/18 13:53:09;;;;;;;;;1.00;0.00;;;;;;;;5057781;28;9091;-76
2022/11/18 13:55:39;;;;;;;;;0.00;0.00;;;;;;;;5090151;28;9192;-77
2022/11/18 13:58:24;;;;;;;;;0.00;0.00;;;;;;;;5093074;28;9131;-76
2022/11/18 14:00:56;;;;;;;;;0.00;0.00;;;;;;;;5090582;28;9180;-82
2022/11/18 14:03:26;;;;;;;;;1.00;0.00;;;;;;;;5087797;28;9178;-79
2022/11/18 14:05:54;;;;;;;;;0.00;0.00;;;;;;;;5077552;28;9235;-78
2022/11/18 14:08:27;;;;;;;;;0.00;0.00;;;;;;;;5098921;28;9163;-78
2022/11/18 14:10:56;;;;;;;;;0.00;0.00;;;;;;;;5075914;28;9158;-81
2022/11/18 14:13:26;;;;;;;;;0.00;0.00;;;;;;;;5096134;28;9140;-84
2022/11/18 14:15:54;;;;;;;;;0.00;0.00;;;;;;;;5094343;28;9163;-83
2022/11/18 14:18:28;;;;;;;;;0.00;0.00;;;;;;;;5081282;28;9075;-80
2022/11/18 14:20:56;;;;;;;;;0.00;0.00;;;;;;;;5088572;28;8932;-81
2022/11/18 14:23:29;;;;;;;;;0.00;0.00;;;;;;;;5087951;28;8952;-82
2022/11/18 14:26:00;;;;;;;;;0.00;0.00;;;;;;;;5091074;28;9749;-80
2022/11/18 14:28:29;;;;;;;;;0.00;0.00;;;;;;;;5098777;28;9608;-81
2022/11/18 14:30:59;;;;;;;;;0.00;0.00;;;;;;;;5105885;28;8831;-83
2022/11/18 14:33:29;;;;;;;;;0.00;0.00;;;;;;;;5085597;28;8910;-78
2022/11/18 14:35:59;;;;;;;;;0.00;0.00;;;;;;;;5111756;28;8862;-79
2022/11/18 14:38:41;;;;;;;;;0.00;0.00;;;;;;;;5104247;28;8879;-82
2022/11/18 14:41:12;;;;;;;;;0.00;0.00;;;;;;;;5084284;28;8825;-81
2022/11/18 14:43:42;;;;;;;;;0.00;0.00;;;;;;;;5097613;28;8841;-80
2022/11/18 14:46:16;;;;;;;;;0.00;0.00;;;;;;;;5071144;28;8826;-81
2022/11/18 14:48:50;;;;;;;;;0.00;0.00;;;;;;;;5082995;28;8857;-79
2022/11/18 14:51:18;;;;;;;;;0.00;0.00;;;;;;;;5106285;28;8838;-81
2022/11/18 14:53:47;;;;;;;;;0.00;0.00;;;;;;;;5073765;28;8810;-77
2022/11/18 14:56:20;;;;;;;;;0.00;0.00;;;;;;;;5093081;28;8873;-80
2022/11/18 14:58:48;;;;;;;;;0.00;0.00;;;;;;;;5092415;28;8832;-80
2022/11/18 15:01:15;;;;;;;;;0.00;0.00;;;;;;;;5072497;28;9608;-80
2022/11/18 15:03:43;;;;;;;;;0.00;0.00;;;;;;;;5086203;28;9679;-79
2022/11/18 15:06:14;;;;;;;;;0.00;0.00;;;;;;;;5092340;28;8846;-76
2022/11/18 15:08:43;;;;;;;;;0.00;0.00;;;;;;;;5095613;28;8852;-80
2022/11/18 15:11:13;;;;;;;;;0.00;0.00;;;;;;;;5098952;28;8971;-79
2022/11/18 15:13:41;;;;;;;;;0.00;0.00;;;;;;;;5077630;28;8955;-79
2022/11/18 15:16:15;;;;;;;;;0.00;0.00;;;;;;;;5092474;28;8985;-80
2022/11/18 15:18:42;;;;;;;;;0.00;0.00;;;;;;;;5087720;28;8858;-79
2022/11/18 15:21:10;;;;;;;;;2.00;0.00;;;;;;;;5077042;28;8928;-78
2022/11/18 15:23:37;;;;;;;;;0.00;0.00;;;;;;;;5075197;28;9089;-79
2022/11/18 15:26:23;;;;;;;;;0.00;0.00;;;;;;;;5086115;28;8927;-78
2022/11/18 15:28:52;;;;;;;;;0.33;0.33;;;;;;;;5090768;28;8961;-77
2022/11/18 15:31:20;;;;;;;;;0.00;0.00;;;;;;;;5070818;28;9092;-77
2022/11/18 15:33:48;;;;;;;;;0.00;0.00;;;;;;;;5091294;28;9010;-78
2022/11/18 15:36:18;;;;;;;;;0.00;0.00;;;;;;;;5086693;28;9061;-77
2022/11/18 15:38:47;;;;;;;;;0.33;0.33;;;;;;;;5086187;28;9126;-78
2022/11/18 15:41:17;;;;;;;;;0.00;0.00;;;;;;;;5091555;28;9746;-78
2022/11/18 15:43:46;;;;;;;;;2.00;2.00;;;;;;;;5072947;28;8998;-77
2022/11/18 15:46:14;;;;;;;;;1.00;1.00;;;;;;;;5089718;28;9094;-78
2022/11/18 15:48:42;;;;;;;;;0.67;0.67;;;;;;;;5083382;28;9229;-77